Estación de Los Angeles
Ultimos registro cada 15 minutos 86
| N° | Estación | Fecha / Hora | Temperatura | Humedad | Lluvia | Velocidad | Dirección | Radiación | Presion |
| 86 | Los Angeles | 05-05-2026 21:15 | 13,6 | 98,8 | 0 | 0 | 156 | 0,6 | 1000,9 |
| 85 | Los Angeles | 05-05-2026 21:00 | 13,7 | 98,7 | 0 | 0 | 163 | 0,6 | 1001,4 |
| 84 | Los Angeles | 05-05-2026 20:45 | 13,7 | 98,6 | 0,4 | 0,3 | 160 | 0,6 | 1001 |
| 83 | Los Angeles | 05-05-2026 20:30 | 13,8 | 98,5 | 1,2 | 0 | 180 | 0,6 | 1001,2 |
| 82 | Los Angeles | 05-05-2026 20:15 | 13,8 | 98,4 | 0,8 | 0 | 149 | 0,6 | 1001,5 |
| 81 | Los Angeles | 05-05-2026 20:00 | 13,9 | 98,2 | 1 | 0 | 69 | 0,6 | 1001,4 |
| 80 | Los Angeles | 05-05-2026 19:45 | 13,9 | 98,2 | 0,6 | 0 | 94 | 0,6 | 1001,3 |
| 79 | Los Angeles | 05-05-2026 19:30 | 13,9 | 98,1 | 0,2 | 0 | 274 | 0,6 | 1001,3 |
| 78 | Los Angeles | 05-05-2026 19:15 | 14 | 97,9 | 0,4 | 0 | 27 | 0,6 | 1001,6 |
| 77 | Los Angeles | 05-05-2026 19:00 | 14 | 97,8 | 1,2 | 0,3 | 344 | 0,6 | 1001,4 |
| 76 | Los Angeles | 05-05-2026 18:45 | 14,1 | 97,6 | 1,4 | 0,7 | 286 | 0,6 | 1002 |
| 75 | Los Angeles | 05-05-2026 18:30 | 14,1 | 97,4 | 0,6 | 0 | 347 | 0,6 | 1001,8 |
| 74 | Los Angeles | 05-05-2026 18:15 | 14,1 | 97,3 | 0,4 | 0,3 | 326 | 0,6 | 1001,7 |
| 73 | Los Angeles | 05-05-2026 18:00 | 14,2 | 97,2 | 0 | 0,3 | 334 | 0,6 | 1001,7 |
| 72 | Los Angeles | 05-05-2026 17:45 | 14,4 | 96,9 | 0 | 0,3 | 338 | 1,9 | 1001,4 |
| 71 | Los Angeles | 05-05-2026 17:30 | 14,4 | 96,8 | 0 | 0 | 309 | 3,1 | 1001,4 |
| 70 | Los Angeles | 05-05-2026 17:15 | 14,6 | 96,7 | 0 | 0,7 | 3 | 11,9 | 1001,2 |
| 69 | Los Angeles | 05-05-2026 17:00 | 14,8 | 96,4 | 0,2 | 0,7 | 21 | 28,1 | 1001,4 |
| 68 | Los Angeles | 05-05-2026 16:45 | 14,9 | 95,1 | 0,2 | 0,3 | 18 | 31,9 | 1001,7 |
| 67 | Los Angeles | 05-05-2026 16:30 | 15,1 | 93,6 | 0 | 0 | 13 | 11,9 | 1001,6 |
| 66 | Los Angeles | 05-05-2026 16:15 | 15,7 | 91,7 | 0 | 0 | 8 | 13,1 | 1001,7 |
| 65 | Los Angeles | 05-05-2026 16:00 | 16 | 90,6 | 0 | 0,3 | 6 | 15,6 | 1001,5 |
| 64 | Los Angeles | 05-05-2026 15:45 | 16,3 | 89,6 | 0 | 0 | 13 | 20,6 | 1001,3 |
| 63 | Los Angeles | 05-05-2026 15:30 | 16,4 | 88,8 | 0 | 0 | 313 | 51,9 | 1001,2 |
| 62 | Los Angeles | 05-05-2026 15:15 | 16,6 | 88,2 | 0 | 0,3 | 347 | 81,9 | 1001,2 |
| 61 | Los Angeles | 05-05-2026 15:00 | 16,6 | 88,9 | 0 | 0,3 | 22 | 111,9 | 1001 |
| 60 | Los Angeles | 05-05-2026 14:45 | 16,3 | 89 | 0 | 0,3 | 350 | 104,4 | 1001,1 |
| 59 | Los Angeles | 05-05-2026 14:30 | 16,5 | 88,6 | 0 | 0,3 | 336 | 91,9 | 1001,2 |
| 58 | Los Angeles | 05-05-2026 14:15 | 16,5 | 89,4 | 0 | 0,3 | 327 | 141,9 | 1000,9 |
| 57 | Los Angeles | 05-05-2026 14:00 | 16,3 | 89,6 | 0 | 0,7 | 307 | 126,9 | 1001,1 |
| 56 | Los Angeles | 05-05-2026 13:45 | 16,7 | 89,1 | 0 | 0,7 | 306 | 139,4 | 1001,3 |
| 55 | Los Angeles | 05-05-2026 13:30 | 16,8 | 89,5 | 0 | 0,3 | 303 | 173,1 | 1001,2 |
| 54 | Los Angeles | 05-05-2026 13:15 | 16,8 | 89,3 | 0 | 1 | 341 | 208,1 | 1001,4 |
| 53 | Los Angeles | 05-05-2026 13:00 | 16,6 | 90,1 | 0 | 0,7 | 17 | 264,4 | 1001,3 |
| 52 | Los Angeles | 05-05-2026 12:45 | 16,7 | 91,9 | 0 | 0,7 | 15 | 221,9 | 1001,7 |
| 51 | Los Angeles | 05-05-2026 12:30 | 16,9 | 93 | 0 | 0,7 | 28 | 300,6 | 1001,7 |
| 50 | Los Angeles | 05-05-2026 12:15 | 16,8 | 95,6 | 0 | 1 | 32 | 809,4 | 1001,4 |
| 49 | Los Angeles | 05-05-2026 12:00 | 14,7 | 98,7 | 0 | 1 | 34 | 208,1 | 1001,3 |
| 48 | Los Angeles | 05-05-2026 11:45 | 14,5 | 99 | 0 | 1 | 31 | 128,1 | 1002 |
| 47 | Los Angeles | 05-05-2026 11:30 | 14,4 | 99,3 | 0 | 0,7 | 24 | 226,9 | 1001,9 |
| 46 | Los Angeles | 05-05-2026 11:15 | 13,9 | 99,5 | 0 | 0,3 | 358 | 151,9 | 1002,5 |
| 45 | Los Angeles | 05-05-2026 11:00 | 14 | 99,6 | 0 | 0,3 | 288 | 180,6 | 1002,7 |
| 44 | Los Angeles | 05-05-2026 10:45 | 13,6 | 99,7 | 0 | 0,3 | 265 | 154,4 | 1002,7 |
| 43 | Los Angeles | 05-05-2026 10:30 | 13,3 | 99,7 | 0 | 0,3 | 258 | 124,4 | 1002,7 |
| 42 | Los Angeles | 05-05-2026 10:15 | 13 | 99,6 | 0 | 0,7 | 258 | 99,4 | 1002,9 |
| 41 | Los Angeles | 05-05-2026 10:00 | 12,9 | 99,7 | 0 | 0,3 | 202 | 104,4 | 1002,4 |
| 40 | Los Angeles | 05-05-2026 09:45 | 12,6 | 99,7 | 0 | 0,3 | 299 | 100,6 | 1003,4 |
| 39 | Los Angeles | 05-05-2026 09:30 | 12,4 | 99,8 | 0 | 0 | 0 | 80,6 | 1002,9 |
| 38 | Los Angeles | 05-05-2026 09:15 | 12,1 | 99,8 | 0 | 0 | 300 | 41,9 | 1002,6 |
| 37 | Los Angeles | 05-05-2026 09:00 | 12 | 99,8 | 0 | 0,3 | 338 | 30,6 | 1002,9 |
| 36 | Los Angeles | 05-05-2026 08:45 | 12 | 99,8 | 0 | 0 | 277 | 24,4 | 1002,7 |
| 35 | Los Angeles | 05-05-2026 08:30 | 11,8 | 99,7 | 0 | 0 | 329 | 29,4 | 1002,8 |
| 34 | Los Angeles | 05-05-2026 08:15 | 11,8 | 99,7 | 0 | 0,3 | 270 | 9,4 | 1003,3 |
| 33 | Los Angeles | 05-05-2026 08:00 | 11,8 | 99,8 | 0 | 0,3 | 271 | 5,6 | 1003,7 |
| 32 | Los Angeles | 05-05-2026 07:45 | 11,6 | 99,8 | 0 | 0 | 225 | 0,6 | 1003,8 |
| 31 | Los Angeles | 05-05-2026 07:30 | 11,5 | 99,7 | 0 | 0 | 282 | 0,6 | 1003,8 |
| 30 | Los Angeles | 05-05-2026 07:15 | 11,4 | 99,7 | 0 | 0 | 345 | 0,6 | 1003,6 |
| 29 | Los Angeles | 05-05-2026 07:00 | 11,6 | 99,7 | 0 | 0 | 330 | 0,6 | 1003,9 |
| 28 | Los Angeles | 05-05-2026 06:45 | 11,4 | 99,6 | 0 | 0 | 351 | 0,6 | 1004,1 |
| 27 | Los Angeles | 05-05-2026 06:30 | 11,4 | 99,7 | 0 | 0 | 345 | 0,6 | 1004,3 |
| 26 | Los Angeles | 05-05-2026 06:15 | 11,2 | 99,6 | 0 | 0 | 314 | 0,6 | 1004,3 |
| 25 | Los Angeles | 05-05-2026 06:00 | 11,3 | 99,6 | 0 | 0 | 314 | 0,6 | 1004,4 |
| 24 | Los Angeles | 05-05-2026 05:45 | 11,4 | 99,5 | 0 | 0 | 316 | 0,6 | 1004,3 |
| 23 | Los Angeles | 05-05-2026 05:30 | 11,3 | 99,5 | 0 | 0 | 317 | 0,6 | 1004,3 |
| 22 | Los Angeles | 05-05-2026 05:15 | 11,5 | 99,5 | 0 | 0 | 321 | 0,6 | 1004,5 |
| 21 | Los Angeles | 05-05-2026 05:00 | 11,5 | 99,5 | 0 | 0 | 348 | 0,6 | 1004,5 |
| 20 | Los Angeles | 05-05-2026 04:45 | 11,3 | 99,5 | 0,2 | 0 | 316 | 0,6 | 1004,2 |
| 19 | Los Angeles | 05-05-2026 04:30 | 11,3 | 99,5 | 0 | 0 | 314 | 0,6 | 1004,4 |
| 18 | Los Angeles | 05-05-2026 04:15 | 11,2 | 99,5 | 0,2 | 0 | 314 | 0,6 | 1004,5 |
| 17 | Los Angeles | 05-05-2026 04:00 | 11,3 | 99,4 | 0 | 0 | 314 | 0,6 | 1004,5 |
| 16 | Los Angeles | 05-05-2026 03:45 | 11,6 | 99,4 | 0 | 0 | 320 | 0,6 | 1004,3 |
| 15 | Los Angeles | 05-05-2026 03:30 | 11,7 | 99,4 | 0 | 0 | 313 | 0,6 | 1004 |
| 14 | Los Angeles | 05-05-2026 03:15 | 11,9 | 99,4 | 0 | 0 | 336 | 0,6 | 1004,7 |
| 13 | Los Angeles | 05-05-2026 03:00 | 11,5 | 99,3 | 0 | 0 | 357 | 0,6 | 1004,3 |
| 12 | Los Angeles | 05-05-2026 02:45 | 11,4 | 99,3 | 0,2 | 0 | 345 | 0,6 | 1004 |
| 11 | Los Angeles | 05-05-2026 02:30 | 11,5 | 99,2 | 0 | 0 | 306 | 0,6 | 1004,2 |
| 10 | Los Angeles | 05-05-2026 02:15 | 11,7 | 99,2 | 0,2 | 0 | 306 | 0,6 | 1004,7 |
| 9 | Los Angeles | 05-05-2026 02:00 | 11,7 | 99,1 | 0 | 0 | 306 | 0,6 | 1004,5 |
| 8 | Los Angeles | 05-05-2026 01:45 | 12 | 99,2 | 0 | 0 | 305 | 0,6 | 1004,5 |
| 7 | Los Angeles | 05-05-2026 01:30 | 11,6 | 99,1 | 0 | 0 | 296 | 0,6 | 1004,5 |
| 6 | Los Angeles | 05-05-2026 01:15 | 11,9 | 99,1 | 0 | 0 | 309 | 0,6 | 1004,5 |
| 5 | Los Angeles | 05-05-2026 01:00 | 11,8 | 99,2 | 0 | 0 | 333 | 0,6 | 1004,2 |
| 4 | Los Angeles | 05-05-2026 00:45 | 11,4 | 99 | 0 | 0 | 345 | 0,6 | 1004,2 |
| 3 | Los Angeles | 05-05-2026 00:30 | 11,4 | 99 | 0 | 0 | 344 | 0,6 | 1004,6 |
| 2 | Los Angeles | 05-05-2026 00:15 | 11 | 99 | 0 | 0 | 341 | 0,6 | 1004,7 |
| 1 | Los Angeles | 05-05-2026 00:00 | 11,2 | 98,9 | 0 | 0 | 341 | 0,6 | 1005,3 |